sensor_id;sensor_type;location;lat;lon;timestamp;P1;durP1;ratioP1;P2;durP2;ratioP2
1220;SDS011;600;48.044;7.878;2022-12-29T15:25:12;5.37;;;2.87;;
1220;SDS011;600;48.044;7.878;2022-12-29T15:28:37;2.97;;;2.67;;
1220;SDS011;600;48.044;7.878;2022-12-29T15:31:05;2.90;;;2.70;;
1220;SDS011;600;48.044;7.878;2022-12-29T15:33:38;3.63;;;2.87;;
1220;SDS011;600;48.044;7.878;2022-12-29T15:39:29;4.73;;;2.87;;
1220;SDS011;600;48.044;7.878;2022-12-29T15:41:59;3.90;;;2.23;;
1220;SDS011;600;48.044;7.878;2022-12-29T15:44:32;2.77;;;2.53;;
1220;SDS011;600;48.044;7.878;2022-12-29T15:47:05;4.63;;;2.80;;
1220;SDS011;600;48.044;7.878;2022-12-29T15:49:37;3.47;;;2.87;;
1220;SDS011;600;48.044;7.878;2022-12-29T15:52:05;3.27;;;2.50;;
1220;SDS011;600;48.044;7.878;2022-12-29T15:54:33;7.47;;;2.63;;
1220;SDS011;600;48.044;7.878;2022-12-29T15:57:00;3.93;;;2.60;;
1220;SDS011;600;48.044;7.878;2022-12-29T15:59:28;4.40;;;2.50;;
1220;SDS011;600;48.044;7.878;2022-12-29T16:01:57;4.70;;;2.83;;
1220;SDS011;600;48.044;7.878;2022-12-29T16:04:27;3.83;;;2.70;;
1220;SDS011;600;48.044;7.878;2022-12-29T16:06:56;2.63;;;2.43;;
1220;SDS011;600;48.044;7.878;2022-12-29T16:09:32;2.90;;;2.67;;
1220;SDS011;600;48.044;7.878;2022-12-29T16:12:00;5.20;;;2.43;;
1220;SDS011;600;48.044;7.878;2022-12-29T16:14:31;6.17;;;3.40;;
1220;SDS011;600;48.044;7.878;2022-12-29T16:17:02;4.83;;;2.60;;
1220;SDS011;600;48.044;7.878;2022-12-29T16:19:32;3.63;;;3.00;;
1220;SDS011;600;48.044;7.878;2022-12-29T16:22:20;3.50;;;2.80;;
1220;SDS011;600;48.044;7.878;2022-12-29T16:24:53;3.07;;;2.40;;
1220;SDS011;600;48.044;7.878;2022-12-29T16:27:24;6.20;;;2.80;;
1220;SDS011;600;48.044;7.878;2022-12-29T16:29:57;3.00;;;2.67;;
1220;SDS011;600;48.044;7.878;2022-12-29T16:32:26;4.47;;;3.10;;
1220;SDS011;600;48.044;7.878;2022-12-29T16:35:01;3.57;;;2.80;;
1220;SDS011;600;48.044;7.878;2022-12-29T16:37:36;3.23;;;2.93;;
1220;SDS011;600;48.044;7.878;2022-12-29T16:40:20;4.27;;;3.57;;
1220;SDS011;600;48.044;7.878;2022-12-29T16:42:54;3.77;;;2.70;;
1220;SDS011;600;48.044;7.878;2022-12-29T16:48:28;3.43;;;3.10;;
1220;SDS011;600;48.044;7.878;2022-12-29T16:51:00;2.23;;;1.93;;
1220;SDS011;600;48.044;7.878;2022-12-29T16:53:29;2.83;;;2.63;;
1220;SDS011;600;48.044;7.878;2022-12-29T16:56:01;4.83;;;2.57;;
1220;SDS011;600;48.044;7.878;2022-12-29T16:58:30;3.13;;;2.50;;
1220;SDS011;600;48.044;7.878;2022-12-29T17:01:00;3.00;;;2.63;;
1220;SDS011;600;48.044;7.878;2022-12-29T17:03:32;2.57;;;2.27;;
1220;SDS011;600;48.044;7.878;2022-12-29T17:06:02;3.27;;;2.20;;
1220;SDS011;600;48.044;7.878;2022-12-29T17:08:29;6.70;;;2.27;;
1220;SDS011;600;48.044;7.878;2022-12-29T17:11:07;2.63;;;2.13;;
1220;SDS011;600;48.044;7.878;2022-12-29T17:14:04;2.40;;;1.83;;
1220;SDS011;600;48.044;7.878;2022-12-29T17:16:31;3.47;;;2.00;;
1220;SDS011;600;48.044;7.878;2022-12-29T17:18:59;1.87;;;1.77;;
1220;SDS011;600;48.044;7.878;2022-12-29T17:21:26;1.70;;;1.60;;
1220;SDS011;600;48.044;7.878;2022-12-29T17:23:52;2.83;;;2.00;;
1220;SDS011;600;48.044;7.878;2022-12-29T17:26:19;1.80;;;1.70;;
1220;SDS011;600;48.044;7.878;2022-12-29T17:28:46;2.57;;;2.37;;
1220;SDS011;600;48.044;7.878;2022-12-29T17:31:12;3.13;;;2.00;;
1220;SDS011;600;48.044;7.878;2022-12-29T17:33:44;2.77;;;1.90;;
1220;SDS011;600;48.044;7.878;2022-12-29T17:36:14;2.37;;;2.20;;
1220;SDS011;600;48.044;7.878;2022-12-29T17:38:41;3.40;;;2.63;;
1220;SDS011;600;48.044;7.878;2022-12-29T17:41:08;3.07;;;2.87;;
1220;SDS011;600;48.044;7.878;2022-12-29T17:43:39;3.30;;;2.13;;
1220;SDS011;600;48.044;7.878;2022-12-29T17:46:06;2.60;;;2.17;;
1220;SDS011;600;48.044;7.878;2022-12-29T17:48:33;3.40;;;2.33;;
1220;SDS011;600;48.044;7.878;2022-12-29T17:50:59;2.37;;;2.17;;
1220;SDS011;600;48.044;7.878;2022-12-29T17:53:28;2.40;;;2.20;;
1220;SDS011;600;48.044;7.878;2022-12-29T17:55:55;3.53;;;2.20;;
1220;SDS011;600;48.044;7.878;2022-12-29T17:58:22;2.60;;;2.20;;
1220;SDS011;600;48.044;7.878;2022-12-29T18:00:51;2.03;;;1.90;;
1220;SDS011;600;48.044;7.878;2022-12-29T18:03:22;1.80;;;1.70;;
1220;SDS011;600;48.044;7.878;2022-12-29T18:05:50;2.40;;;2.13;;
1220;SDS011;600;48.044;7.878;2022-12-29T18:08:17;2.30;;;2.00;;
1220;SDS011;600;48.044;7.878;2022-12-29T18:10:45;1.60;;;1.50;;
1220;SDS011;600;48.044;7.878;2022-12-29T18:13:14;2.70;;;2.27;;
1220;SDS011;600;48.044;7.878;2022-12-29T18:15:45;3.97;;;2.27;;
1220;SDS011;600;48.044;7.878;2022-12-29T18:18:12;2.30;;;2.10;;
1220;SDS011;600;48.044;7.878;2022-12-29T18:20:41;3.67;;;2.30;;
1220;SDS011;600;48.044;7.878;2022-12-29T18:23:09;2.10;;;2.00;;
1220;SDS011;600;48.044;7.878;2022-12-29T18:25:45;3.90;;;2.27;;
1220;SDS011;600;48.044;7.878;2022-12-29T18:28:16;3.13;;;2.00;;
1220;SDS011;600;48.044;7.878;2022-12-29T18:30:43;1.97;;;1.70;;
1220;SDS011;600;48.044;7.878;2022-12-29T18:33:12;2.17;;;1.97;;
1220;SDS011;600;48.044;7.878;2022-12-29T18:35:41;2.73;;;2.20;;
1220;SDS011;600;48.044;7.878;2022-12-29T18:38:10;1.97;;;1.50;;
1220;SDS011;600;48.044;7.878;2022-12-29T18:40:36;1.87;;;1.77;;
1220;SDS011;600;48.044;7.878;2022-12-29T18:43:05;4.23;;;2.50;;
1220;SDS011;600;48.044;7.878;2022-12-29T18:45:32;5.13;;;2.10;;
1220;SDS011;600;48.044;7.878;2022-12-29T18:47:59;1.93;;;1.83;;
1220;SDS011;600;48.044;7.878;2022-12-29T18:50:26;2.20;;;2.00;;
1220;SDS011;600;48.044;7.878;2022-12-29T18:52:53;2.77;;;2.20;;
1220;SDS011;600;48.044;7.878;2022-12-29T18:55:20;3.70;;;2.40;;
1220;SDS011;600;48.044;7.878;2022-12-29T18:57:49;2.20;;;2.10;;
1220;SDS011;600;48.044;7.878;2022-12-29T19:00:18;2.50;;;2.30;;
1220;SDS011;600;48.044;7.878;2022-12-29T19:02:46;2.73;;;2.40;;
1220;SDS011;600;48.044;7.878;2022-12-29T19:05:17;4.13;;;3.13;;
1220;SDS011;600;48.044;7.878;2022-12-29T19:07:47;4.17;;;3.77;;
1220;SDS011;600;48.044;7.878;2022-12-29T19:10:14;4.50;;;3.20;;
1220;SDS011;600;48.044;7.878;2022-12-29T19:12:41;3.70;;;3.40;;
1220;SDS011;600;48.044;7.878;2022-12-29T19:15:11;3.97;;;3.50;;
1220;SDS011;600;48.044;7.878;2022-12-29T19:17:46;3.30;;;3.00;;
1220;SDS011;600;48.044;7.878;2022-12-29T19:20:20;4.40;;;3.00;;
1220;SDS011;600;48.044;7.878;2022-12-29T19:22:51;2.63;;;2.40;;
1220;SDS011;600;48.044;7.878;2022-12-29T19:25:18;2.87;;;2.67;;
1220;SDS011;600;48.044;7.878;2022-12-29T19:27:45;2.37;;;2.17;;
1220;SDS011;600;48.044;7.878;2022-12-29T19:30:12;2.10;;;2.00;;
1220;SDS011;600;48.044;7.878;2022-12-29T19:32:39;3.73;;;2.10;;
1220;SDS011;600;48.044;7.878;2022-12-29T19:35:08;1.80;;;1.70;;
1220;SDS011;600;48.044;7.878;2022-12-29T19:37:36;2.53;;;2.30;;
1220;SDS011;600;48.044;7.878;2022-12-29T19:40:04;2.67;;;2.33;;
1220;SDS011;600;48.044;7.878;2022-12-29T19:42:33;1.80;;;1.70;;
1220;SDS011;600;48.044;7.878;2022-12-29T19:44:59;2.10;;;2.00;;
1220;SDS011;600;48.044;7.878;2022-12-29T19:47:27;1.73;;;1.63;;
1220;SDS011;600;48.044;7.878;2022-12-29T19:49:55;2.33;;;1.80;;
1220;SDS011;600;48.044;7.878;2022-12-29T19:52:23;1.87;;;1.77;;
1220;SDS011;600;48.044;7.878;2022-12-29T19:54:50;1.80;;;1.70;;
1220;SDS011;600;48.044;7.878;2022-12-29T19:57:17;2.53;;;2.00;;
1220;SDS011;600;48.044;7.878;2022-12-29T19:59:44;2.37;;;2.17;;
1220;SDS011;600;48.044;7.878;2022-12-29T20:02:13;1.70;;;1.60;;
1220;SDS011;600;48.044;7.878;2022-12-29T20:04:43;1.30;;;1.23;;
1220;SDS011;600;48.044;7.878;2022-12-29T20:07:10;1.53;;;1.43;;
1220;SDS011;600;48.044;7.878;2022-12-29T20:09:38;2.37;;;2.17;;
1220;SDS011;600;48.044;7.878;2022-12-29T20:12:05;2.20;;;2.10;;
1220;SDS011;600;48.044;7.878;2022-12-29T20:14:32;2.30;;;2.10;;
1220;SDS011;600;48.044;7.878;2022-12-29T20:16:59;2.53;;;2.33;;
1220;SDS011;600;48.044;7.878;2022-12-29T20:19:26;1.57;;;1.43;;
1220;SDS011;600;48.044;7.878;2022-12-29T20:21:54;3.33;;;2.27;;
1220;SDS011;600;48.044;7.878;2022-12-29T20:24:21;2.53;;;2.20;;
1220;SDS011;600;48.044;7.878;2022-12-29T20:26:49;1.60;;;1.50;;
1220;SDS011;600;48.044;7.878;2022-12-29T20:29:17;1.70;;;1.60;;
1220;SDS011;600;48.044;7.878;2022-12-29T20:31:44;2.30;;;1.50;;
1220;SDS011;600;48.044;7.878;2022-12-29T20:34:11;2.23;;;1.57;;
1220;SDS011;600;48.044;7.878;2022-12-29T20:36:38;1.67;;;1.57;;
1220;SDS011;600;48.044;7.878;2022-12-29T20:39:08;1.77;;;1.50;;
1220;SDS011;600;48.044;7.878;2022-12-29T20:41:38;2.30;;;1.63;;
1220;SDS011;600;48.044;7.878;2022-12-29T20:44:07;2.10;;;2.00;;
1220;SDS011;600;48.044;7.878;2022-12-29T20:46:33;2.40;;;1.90;;
1220;SDS011;600;48.044;7.878;2022-12-29T20:49:00;2.83;;;2.40;;
1220;SDS011;600;48.044;7.878;2022-12-29T20:51:27;3.83;;;3.53;;
1220;SDS011;600;48.044;7.878;2022-12-29T20:53:54;3.43;;;1.97;;
1220;SDS011;600;48.044;7.878;2022-12-29T20:56:22;3.27;;;2.63;;
1220;SDS011;600;48.044;7.878;2022-12-29T20:58:50;5.53;;;3.20;;
1220;SDS011;600;48.044;7.878;2022-12-29T21:01:19;5.37;;;4.87;;
1220;SDS011;600;48.044;7.878;2022-12-29T21:03:48;3.63;;;3.33;;
1220;SDS011;600;48.044;7.878;2022-12-29T21:06:15;2.90;;;2.70;;
1220;SDS011;600;48.044;7.878;2022-12-29T21:08:43;2.37;;;2.27;;
1220;SDS011;600;48.044;7.878;2022-12-29T21:11:10;1.87;;;1.50;;
1220;SDS011;600;48.044;7.878;2022-12-29T21:13:37;1.80;;;1.33;;
1220;SDS011;600;48.044;7.878;2022-12-29T21:16:05;2.00;;;1.67;;
1220;SDS011;600;48.044;7.878;2022-12-29T21:18:35;1.77;;;1.67;;
1220;SDS011;600;48.044;7.878;2022-12-29T21:21:02;3.60;;;1.93;;
1220;SDS011;600;48.044;7.878;2022-12-29T21:23:30;6.33;;;3.13;;
1220;SDS011;600;48.044;7.878;2022-12-29T21:25:57;4.50;;;3.13;;
1220;SDS011;600;48.044;7.878;2022-12-29T21:28:25;2.90;;;2.33;;
1220;SDS011;600;48.044;7.878;2022-12-29T21:30:52;1.53;;;1.43;;
1220;SDS011;600;48.044;7.878;2022-12-29T21:33:19;1.17;;;1.17;;
1220;SDS011;600;48.044;7.878;2022-12-29T21:35:47;1.63;;;1.40;;
1220;SDS011;600;48.044;7.878;2022-12-29T21:38:14;1.23;;;1.20;;
1220;SDS011;600;48.044;7.878;2022-12-29T21:40:41;1.30;;;1.17;;
1220;SDS011;600;48.044;7.878;2022-12-29T21:43:08;1.60;;;1.50;;
1220;SDS011;600;48.044;7.878;2022-12-29T21:45:36;2.23;;;1.53;;
1220;SDS011;600;48.044;7.878;2022-12-29T21:48:02;1.17;;;1.07;;
1220;SDS011;600;48.044;7.878;2022-12-29T21:50:50;3.70;;;1.57;;
1220;SDS011;600;48.044;7.878;2022-12-29T21:53:36;1.03;;;1.03;;
1220;SDS011;600;48.044;7.878;2022-12-29T21:56:05;1.80;;;1.50;;
1220;SDS011;600;48.044;7.878;2022-12-29T21:58:33;1.00;;;1.00;;
1220;SDS011;600;48.044;7.878;2022-12-29T22:01:18;0.83;;;0.83;;
1220;SDS011;600;48.044;7.878;2022-12-29T22:04:02;0.97;;;0.97;;
1220;SDS011;600;48.044;7.878;2022-12-29T22:06:48;1.20;;;1.10;;
1220;SDS011;600;48.044;7.878;2022-12-29T22:09:32;0.87;;;0.80;;
1220;SDS011;600;48.044;7.878;2022-12-29T22:12:17;1.07;;;0.80;;
1220;SDS011;600;48.044;7.878;2022-12-29T22:15:01;0.97;;;0.90;;
1220;SDS011;600;48.044;7.878;2022-12-29T22:17:28;0.93;;;0.93;;
1220;SDS011;600;48.044;7.878;2022-12-29T22:19:55;0.57;;;0.57;;
1220;SDS011;600;48.044;7.878;2022-12-29T22:22:23;0.73;;;0.73;;
1220;SDS011;600;48.044;7.878;2022-12-29T22:24:49;0.90;;;0.90;;
1220;SDS011;600;48.044;7.878;2022-12-29T22:27:16;1.00;;;1.00;;
1220;SDS011;600;48.044;7.878;2022-12-29T22:29:43;0.90;;;0.90;;
1220;SDS011;600;48.044;7.878;2022-12-29T22:32:10;1.80;;;1.53;;
1220;SDS011;600;48.044;7.878;2022-12-29T22:34:37;1.20;;;1.00;;
1220;SDS011;600;48.044;7.878;2022-12-29T22:37:04;1.30;;;1.20;;
1220;SDS011;600;48.044;7.878;2022-12-29T22:39:32;1.30;;;1.20;;
1220;SDS011;600;48.044;7.878;2022-12-29T22:41:58;1.20;;;1.20;;
1220;SDS011;600;48.044;7.878;2022-12-29T22:44:25;1.07;;;1.07;;
1220;SDS011;600;48.044;7.878;2022-12-29T22:46:52;1.10;;;1.10;;
1220;SDS011;600;48.044;7.878;2022-12-29T22:49:18;0.70;;;0.70;;
1220;SDS011;600;48.044;7.878;2022-12-29T22:51:46;1.73;;;1.43;;
1220;SDS011;600;48.044;7.878;2022-12-29T22:54:13;1.07;;;0.70;;
1220;SDS011;600;48.044;7.878;2022-12-29T22:56:41;0.73;;;0.73;;
1220;SDS011;600;48.044;7.878;2022-12-29T22:59:07;1.00;;;0.90;;
1220;SDS011;600;48.044;7.878;2022-12-29T23:01:35;1.07;;;0.60;;
1220;SDS011;600;48.044;7.878;2022-12-29T23:04:02;0.90;;;0.90;;
1220;SDS011;600;48.044;7.878;2022-12-29T23:06:30;0.80;;;0.80;;
1220;SDS011;600;48.044;7.878;2022-12-29T23:08:58;0.73;;;0.73;;
1220;SDS011;600;48.044;7.878;2022-12-29T23:11:25;1.00;;;0.80;;
1220;SDS011;600;48.044;7.878;2022-12-29T23:13:54;1.07;;;0.97;;
1220;SDS011;600;48.044;7.878;2022-12-29T23:16:21;1.00;;;0.77;;
1220;SDS011;600;48.044;7.878;2022-12-29T23:18:48;1.50;;;0.70;;
1220;SDS011;600;48.044;7.878;2022-12-29T23:21:16;0.80;;;0.80;;
1220;SDS011;600;48.044;7.878;2022-12-29T23:23:44;1.20;;;1.10;;
1220;SDS011;600;48.044;7.878;2022-12-29T23:29:58;1.40;;;1.27;;
1220;SDS011;600;48.044;7.878;2022-12-29T23:32:25;0.90;;;0.70;;
1220;SDS011;600;48.044;7.878;2022-12-29T23:34:52;0.70;;;0.70;;
1220;SDS011;600;48.044;7.878;2022-12-29T23:37:18;1.33;;;1.23;;
1220;SDS011;600;48.044;7.878;2022-12-29T23:39:45;0.80;;;0.80;;
1220;SDS011;600;48.044;7.878;2022-12-29T23:42:12;0.77;;;0.77;;
1220;SDS011;600;48.044;7.878;2022-12-29T23:44:38;0.97;;;0.73;;
1220;SDS011;600;48.044;7.878;2022-12-29T23:47:06;1.17;;;1.10;;
1220;SDS011;600;48.044;7.878;2022-12-29T23:49:33;0.80;;;0.80;;
1220;SDS011;600;48.044;7.878;2022-12-29T23:52:00;1.10;;;1.00;;
1220;SDS011;600;48.044;7.878;2022-12-29T23:54:26;1.20;;;0.90;;
1220;SDS011;600;48.044;7.878;2022-12-29T23:56:53;1.90;;;1.60;;
1220;SDS011;600;48.044;7.878;2022-12-29T23:59:20;1.20;;;1.13;;
